createdAt,value
2022-09-20T00:01:15.457Z,97.74
2022-09-20T00:03:44.572Z,98.09
2022-09-20T00:06:17.004Z,97.75
2022-09-20T00:08:43.887Z,97.64
2022-09-20T00:11:22.418Z,98.07
2022-09-20T00:13:50.915Z,98.00
2022-09-20T00:16:21.300Z,97.81
2022-09-20T00:18:52.415Z,97.57
2022-09-20T00:21:21.075Z,97.76
2022-09-20T00:23:47.888Z,97.75
2022-09-20T00:26:14.917Z,98.07
2022-09-20T00:28:41.967Z,98.15
2022-09-20T00:31:08.567Z,98.04
2022-09-20T00:33:53.661Z,98.29
2022-09-20T00:36:20.298Z,98.04
2022-09-20T00:38:47.739Z,97.76
2022-09-20T00:41:17.348Z,97.94
2022-09-20T00:43:46.246Z,97.87
2022-09-20T00:46:37.727Z,97.99
2022-09-20T00:49:13.900Z,98.33
2022-09-20T00:51:45.613Z,97.92
2022-09-20T00:54:20.550Z,97.76
2022-09-20T00:56:47.345Z,97.51
2022-09-20T00:59:22.499Z,98.07
2022-09-20T01:01:54.007Z,97.85
2022-09-20T01:04:25.003Z,97.57
2022-09-20T01:06:54.648Z,97.44
2022-09-20T01:09:21.477Z,97.38
2022-09-20T01:11:50.547Z,97.54
2022-09-20T01:14:19.603Z,97.99
2022-09-20T01:16:46.202Z,97.49
2022-09-20T01:19:33.018Z,97.73
2022-09-20T01:22:04.443Z,97.36
2022-09-20T01:24:55.382Z,97.94
2022-09-20T01:27:21.891Z,98.00
2022-09-20T01:29:48.271Z,97.94
2022-09-20T01:32:19.818Z,98.04
2022-09-20T01:34:55.269Z,98.02
2022-09-20T01:37:28.074Z,97.77
2022-09-20T01:40:23.747Z,97.67
2022-09-20T01:43:02.303Z,97.63
2022-09-20T01:45:31.866Z,97.51
2022-09-20T01:48:10.200Z,97.87
2022-09-20T01:51:09.512Z,97.89
2022-09-20T01:53:48.178Z,97.77
2022-09-20T01:56:17.616Z,97.65
2022-09-20T01:59:07.192Z,98.26
2022-09-20T02:02:16.908Z,98.40
2022-09-20T02:05:11.363Z,98.04
2022-09-20T02:08:03.469Z,98.22
2022-09-20T02:11:05.405Z,98.07
2022-09-20T02:13:42.775Z,97.78
2022-09-20T02:16:54.597Z,97.76
2022-09-20T02:19:41.359Z,97.79
2022-09-20T02:22:30.009Z,97.41
2022-09-20T02:25:33.980Z,97.70
2022-09-20T02:28:31.866Z,97.44
2022-09-20T02:31:33.256Z,97.66
2022-09-20T02:34:27.985Z,97.39
2022-09-20T02:37:15.827Z,97.93
2022-09-20T02:39:58.516Z,97.59
2022-09-20T02:42:46.211Z,97.82
2022-09-20T02:45:28.095Z,98.35
2022-09-20T02:48:00.678Z,98.16
2022-09-20T02:50:39.011Z,98.02
2022-09-20T02:53:18.992Z,98.04
2022-09-20T02:56:08.072Z,98.46
2022-09-20T02:58:53.392Z,98.22
2022-09-20T03:01:45.885Z,98.32
2022-09-20T03:04:34.343Z,98.40
2022-09-20T03:07:17.647Z,98.16
2022-09-20T03:10:12.756Z,98.12
2022-09-20T03:13:07.322Z,98.19
2022-09-20T03:16:04.598Z,98.29
2022-09-20T03:18:43.786Z,98.27
2022-09-20T03:21:13.419Z,98.41
2022-09-20T03:24:17.007Z,98.14
2022-09-20T03:26:58.263Z,98.17
2022-09-20T03:29:54.123Z,98.46
2022-09-20T03:32:33.911Z,98.21
2022-09-20T03:35:03.145Z,98.47
2022-09-20T03:37:50.907Z,98.47
2022-09-20T03:40:52.260Z,98.42
2022-09-20T03:43:34.857Z,98.59
2022-09-20T03:46:07.487Z,98.64
2022-09-20T03:48:39.889Z,98.43
2022-09-20T03:51:33.767Z,98.62
2022-09-20T03:54:28.610Z,98.69
2022-09-20T03:57:07.727Z,98.96
2022-09-20T03:59:54.226Z,98.90
2022-09-20T04:02:39.116Z,98.82
2022-09-20T04:05:14.236Z,98.79
2022-09-20T04:08:00.872Z,98.71
2022-09-20T04:10:46.945Z,98.92
2022-09-20T04:13:41.928Z,98.62
2022-09-20T04:16:23.626Z,98.90
2022-09-20T04:18:56.858Z,99.08
2022-09-20T04:22:11.940Z,99.35
2022-09-20T04:24:50.366Z,98.78
2022-09-20T04:27:33.079Z,98.72
2022-09-20T04:30:19.417Z,98.78
2022-09-20T04:32:57.964Z,98.78
2022-09-20T04:36:03.774Z,99.00
2022-09-20T04:38:34.140Z,99.43
2022-09-20T04:41:00.887Z,99.68
2022-09-20T04:44:03.417Z,99.09
2022-09-20T04:46:52.710Z,99.61
2022-09-20T04:49:46.277Z,99.55
2022-09-20T04:52:47.846Z,99.17
2022-09-20T04:55:46.146Z,99.73
2022-09-20T04:58:33.098Z,99.46
2022-09-20T05:01:37.127Z,99.43
2022-09-20T05:04:49.068Z,99.29
2022-09-20T05:07:55.701Z,99.45
2022-09-20T05:10:55.119Z,99.61
2022-09-20T05:13:51.223Z,99.47
2022-09-20T05:16:29.717Z,99.59
2022-09-20T05:19:13.735Z,99.26
2022-09-20T05:21:59.665Z,99.33
2022-09-20T05:25:07.687Z,99.50
2022-09-20T05:27:57.007Z,99.04
2022-09-20T05:30:34.447Z,99.48
2022-09-20T05:33:20.615Z,99.42
2022-09-20T05:35:47.559Z,99.25
2022-09-20T05:41:07.942Z,99.52
2022-09-20T05:43:41.771Z,99.94
2022-09-20T05:46:32.874Z,100.00
2022-09-20T05:49:05.001Z,99.98
2022-09-20T05:51:57.779Z,99.74
2022-09-20T05:55:01.433Z,100.00
2022-09-20T05:57:41.106Z,99.69
2022-09-20T06:00:20.184Z,99.41
2022-09-20T06:03:05.380Z,99.14
2022-09-20T06:05:40.847Z,98.79
2022-09-20T06:08:25.403Z,98.83
2022-09-20T06:11:32.081Z,98.98
2022-09-20T06:14:22.347Z,98.77
2022-09-20T06:17:23.307Z,98.66
2022-09-20T06:20:05.871Z,98.84
2022-09-20T06:22:50.890Z,98.64
2022-09-20T06:25:31.149Z,98.84
2022-09-20T06:28:12.848Z,98.65
2022-09-20T06:30:53.988Z,98.67
2022-09-20T06:33:23.884Z,98.75
2022-09-20T06:35:59.342Z,98.27
2022-09-20T06:39:28.807Z,98.69
2022-09-20T06:41:56.095Z,98.46
2022-09-20T06:44:22.576Z,98.78
2022-09-20T06:46:49.132Z,98.67
2022-09-20T06:49:17.135Z,98.26
2022-09-20T06:51:43.678Z,97.14
2022-09-20T06:54:21.242Z,96.28
2022-09-20T06:56:50.500Z,96.14
2022-09-20T06:59:19.056Z,95.60
2022-09-20T07:01:45.687Z,96.12
2022-09-20T07:04:12.415Z,96.64
2022-09-20T07:06:39.936Z,96.82
2022-09-20T07:09:11.078Z,95.87
2022-09-20T07:11:45.508Z,95.42
2022-09-20T07:14:12.165Z,95.29
2022-09-20T07:16:43.800Z,95.76
2022-09-20T07:19:11.398Z,95.15
2022-09-20T07:21:39.546Z,93.88
2022-09-20T07:24:06.321Z,93.05
2022-09-20T07:26:33.303Z,93.32
2022-09-20T07:29:00.835Z,93.77
2022-09-20T07:31:30.337Z,93.89
2022-09-20T07:33:56.913Z,93.63
2022-09-20T07:36:43.098Z,93.57
2022-09-20T07:39:14.043Z,93.01
2022-09-20T07:41:48.593Z,91.85
2022-09-20T07:44:21.603Z,92.17
2022-09-20T07:46:53.143Z,90.99
2022-09-20T07:49:21.905Z,91.81
2022-09-20T07:51:52.291Z,89.69
2022-09-20T07:54:19.150Z,90.12
2022-09-20T07:56:46.591Z,89.17
2022-09-20T07:59:14.495Z,88.35
2022-09-20T08:01:41.452Z,87.84
2022-09-20T08:04:09.685Z,87.53
2022-09-20T08:06:41.206Z,87.32
2022-09-20T08:09:11.163Z,86.75
2022-09-20T08:11:39.677Z,86.97
2022-09-20T08:14:08.810Z,86.21
2022-09-20T08:16:41.451Z,86.71
2022-09-20T08:19:08.472Z,85.59
2022-09-20T08:21:36.266Z,85.91
2022-09-20T08:24:04.848Z,86.08
2022-09-20T08:26:31.761Z,86.27
2022-09-20T08:28:59.917Z,85.14
2022-09-20T08:31:30.738Z,84.44
2022-09-20T08:33:58.124Z,85.24
2022-09-20T08:36:26.046Z,83.57
2022-09-20T08:42:44.577Z,80.98
2022-09-20T08:45:33.798Z,80.02
2022-09-20T08:48:05.641Z,81.52
2022-09-20T08:50:34.626Z,79.16
2022-09-20T08:53:05.456Z,79.28
2022-09-20T08:55:39.489Z,78.86
2022-09-20T08:58:12.270Z,79.59
2022-09-20T09:00:40.510Z,78.75
2022-09-20T09:03:12.089Z,77.06
2022-09-20T09:05:53.624Z,77.67
2022-09-20T09:08:27.118Z,77.06
2022-09-20T09:11:10.107Z,76.62
2022-09-20T09:13:54.229Z,76.17
2022-09-20T09:16:31.854Z,74.16
2022-09-20T09:19:43.997Z,75.18
2022-09-20T09:22:11.215Z,75.84
2022-09-20T09:24:37.723Z,76.20
2022-09-20T09:27:09.820Z,77.11
2022-09-20T09:29:40.099Z,76.78
2022-09-20T09:32:24.670Z,77.67
2022-09-20T09:34:51.283Z,75.29
2022-09-20T09:37:31.107Z,74.92
2022-09-20T09:40:18.939Z,75.57
2022-09-20T09:42:54.770Z,72.19
2022-09-20T09:45:27.202Z,71.40
2022-09-20T09:47:58.051Z,69.40
2022-09-20T09:50:27.091Z,71.04
2022-09-20T09:53:03.076Z,69.97
2022-09-20T09:55:59.121Z,70.34
2022-09-20T09:58:39.658Z,69.52
2022-09-20T10:01:13.070Z,71.55
2022-09-20T10:04:03.626Z,69.94
2022-09-20T10:06:40.828Z,69.69
2022-09-20T10:09:25.163Z,70.80
2022-09-20T10:12:17.709Z,70.27
2022-09-20T10:15:03.832Z,69.53
2022-09-20T10:17:44.706Z,70.82
2022-09-20T10:20:31.160Z,69.69
2022-09-20T10:26:22.450Z,67.04
2022-09-20T10:29:04.106Z,67.62
2022-09-20T10:31:37.828Z,65.61
2022-09-20T10:34:27.146Z,65.54
2022-09-20T10:36:59.647Z,63.12
2022-09-20T10:39:31.797Z,66.49
2022-09-20T10:42:35.946Z,62.72
2022-09-20T10:45:59.104Z,61.69
2022-09-20T10:48:38.369Z,62.45
2022-09-20T10:51:25.220Z,62.82
2022-09-20T10:53:54.845Z,65.04
2022-09-20T10:56:37.716Z,64.01
2022-09-20T10:59:34.518Z,64.02
2022-09-20T11:02:20.061Z,64.71
2022-09-20T11:05:24.355Z,65.59
2022-09-20T11:08:07.384Z,64.39
2022-09-20T11:10:36.936Z,61.67
2022-09-20T11:13:10.734Z,62.24
2022-09-20T11:15:47.075Z,64.52
2022-09-20T11:18:23.779Z,60.53
2022-09-20T11:21:03.928Z,60.69
2022-09-20T11:24:04.821Z,58.77
2022-09-20T11:26:39.964Z,59.79
2022-09-20T11:29:21.959Z,60.58
2022-09-20T11:31:54.777Z,61.92
2022-09-20T11:34:28.729Z,62.48
2022-09-20T11:37:03.068Z,65.16
2022-09-20T11:39:44.441Z,66.69
2022-09-20T11:42:16.427Z,67.37
2022-09-20T11:44:43.382Z,73.34
2022-09-20T11:47:54.048Z,74.56
2022-09-20T11:50:35.386Z,78.68
2022-09-20T11:53:37.221Z,79.89
2022-09-20T11:56:24.947Z,81.77
2022-09-20T11:58:59.072Z,83.57
2022-09-20T12:01:37.819Z,82.52
2022-09-20T12:04:34.623Z,79.48
2022-09-20T12:07:17.970Z,81.29
2022-09-20T12:10:01.703Z,80.79
2022-09-20T12:12:37.751Z,83.14
2022-09-20T12:15:32.061Z,84.49
2022-09-20T12:17:58.588Z,86.54
2022-09-20T12:20:34.760Z,87.69
2022-09-20T12:23:41.577Z,88.83
2022-09-20T12:26:21.639Z,88.14
2022-09-20T12:29:00.201Z,88.20
2022-09-20T12:31:31.019Z,88.74
2022-09-20T12:34:13.707Z,88.58
2022-09-20T12:36:53.433Z,89.52
2022-09-20T12:39:29.449Z,88.84
2022-09-20T12:42:03.547Z,88.31
2022-09-20T12:44:51.807Z,86.17
2022-09-20T12:47:21.026Z,85.40
2022-09-20T12:50:06.061Z,86.79
2022-09-20T12:52:50.344Z,87.49
2022-09-20T12:55:45.678Z,86.92
2022-09-20T12:58:15.046Z,87.74
2022-09-20T13:00:59.820Z,88.89
2022-09-20T13:03:36.518Z,87.48
2022-09-20T13:06:06.622Z,88.70
2022-09-20T13:08:39.236Z,84.65
2022-09-20T13:11:24.446Z,85.58
2022-09-20T13:14:12.413Z,83.67
2022-09-20T13:16:47.832Z,84.69
2022-09-20T13:19:22.162Z,83.71
2022-09-20T13:21:58.454Z,81.32
2022-09-20T13:24:27.356Z,84.51
2022-09-20T13:27:00.060Z,86.14
2022-09-20T13:29:33.323Z,83.39
2022-09-20T13:32:26.211Z,84.18
2022-09-20T13:35:14.247Z,85.42
2022-09-20T13:37:55.857Z,83.81
2022-09-20T13:40:43.721Z,82.70
2022-09-20T13:43:33.699Z,80.90
2022-09-20T13:46:12.200Z,81.54
2022-09-20T13:48:39.644Z,81.31
2022-09-20T13:51:23.352Z,79.90
2022-09-20T13:53:49.960Z,80.92
2022-09-20T13:56:21.639Z,81.04
2022-09-20T13:58:49.652Z,79.29
2022-09-20T14:01:24.710Z,77.99
2022-09-20T14:03:53.810Z,77.04
2022-09-20T14:06:29.765Z,75.59
2022-09-20T14:08:58.896Z,76.77
2022-09-20T14:11:33.807Z,78.01
2022-09-20T14:14:04.306Z,75.95
2022-09-20T14:16:37.901Z,76.27
2022-09-20T14:19:08.092Z,75.90
2022-09-20T14:21:37.146Z,71.99
2022-09-20T14:24:24.788Z,73.19
2022-09-20T14:27:21.237Z,70.02
2022-09-20T14:29:50.535Z,67.52
2022-09-20T14:32:17.044Z,68.85
2022-09-20T14:35:08.182Z,69.90
2022-09-20T14:37:51.191Z,65.71
2022-09-20T14:40:27.194Z,67.63
2022-09-20T14:42:57.142Z,65.99
2022-09-20T14:45:39.428Z,67.71
2022-09-20T14:48:25.907Z,66.62
2022-09-20T14:51:21.395Z,65.84
2022-09-20T14:53:51.048Z,68.89
2022-09-20T14:56:32.402Z,66.58
2022-09-20T14:59:19.175Z,66.93
2022-09-20T15:01:56.596Z,64.60
2022-09-20T15:04:25.487Z,65.32
2022-09-20T15:06:52.356Z,56.53
2022-09-20T15:09:20.610Z,55.44
2022-09-20T15:11:47.255Z,46.34
2022-09-20T15:14:13.816Z,47.81
2022-09-20T15:16:40.386Z,49.24
2022-09-20T15:19:08.476Z,51.52
2022-09-20T15:21:35.102Z,50.86
2022-09-20T15:24:01.809Z,47.44
2022-09-20T15:26:28.397Z,47.37
2022-09-20T15:28:54.888Z,51.10
2022-09-20T15:31:21.506Z,55.09
2022-09-20T15:33:48.108Z,60.46
2022-09-20T15:36:14.567Z,60.09
2022-09-20T15:38:43.399Z,60.85
2022-09-20T15:41:10.120Z,68.17
2022-09-20T15:43:36.580Z,67.29
2022-09-20T15:46:21.321Z,68.46
2022-09-20T15:48:48.244Z,72.33
2022-09-20T15:51:15.544Z,67.57
2022-09-20T15:53:56.716Z,67.11
2022-09-20T15:56:27.503Z,65.83
2022-09-20T15:59:15.947Z,68.04
2022-09-20T16:01:44.662Z,70.51
2022-09-20T16:04:19.704Z,69.34
2022-09-20T16:06:54.758Z,74.11
2022-09-20T16:09:21.381Z,70.34
2022-09-20T16:11:48.599Z,70.92
2022-09-20T16:14:16.684Z,71.41
2022-09-20T16:16:43.189Z,73.07
2022-09-20T16:19:38.498Z,73.46
2022-09-20T16:22:22.217Z,75.06
2022-09-20T16:24:48.678Z,75.54
2022-09-20T16:27:18.370Z,71.64
2022-09-20T16:29:45.283Z,69.08
2022-09-20T16:32:11.759Z,72.60
2022-09-20T16:34:38.180Z,68.55
2022-09-20T16:37:17.751Z,69.41
2022-09-20T16:39:44.358Z,68.79
2022-09-20T16:42:12.919Z,68.08
2022-09-20T16:44:44.601Z,69.04
2022-09-20T16:47:20.463Z,69.64
2022-09-20T16:49:47.850Z,68.39
2022-09-20T16:52:14.495Z,69.16
2022-09-20T16:54:40.957Z,69.14
2022-09-20T16:57:08.118Z,70.57
2022-09-20T16:59:34.584Z,71.65
2022-09-20T17:02:01.056Z,71.24
2022-09-20T17:04:27.652Z,72.36
2022-09-20T17:06:54.678Z,74.22
2022-09-20T17:09:21.181Z,72.73
2022-09-20T17:11:50.254Z,73.99
2022-09-20T17:14:19.095Z,74.50
2022-09-20T17:16:47.902Z,74.82
2022-09-20T17:19:17.739Z,75.15
2022-09-20T17:21:50.219Z,75.17
2022-09-20T17:24:22.112Z,75.09
2022-09-20T17:26:50.469Z,76.17
2022-09-20T17:29:18.606Z,77.14
2022-09-20T17:31:51.430Z,77.92
2022-09-20T17:34:22.005Z,78.77
2022-09-20T17:36:50.296Z,79.13
2022-09-20T17:39:17.577Z,79.83
2022-09-20T17:41:46.663Z,80.07
2022-09-20T17:44:14.128Z,81.60
2022-09-20T17:46:43.281Z,81.84
2022-09-20T17:49:16.663Z,82.91
2022-09-20T17:51:45.401Z,84.07
2022-09-20T17:54:13.996Z,84.03
2022-09-20T17:56:42.716Z,84.69
2022-09-20T17:59:10.699Z,84.79
2022-09-20T18:01:37.780Z,85.21
2022-09-20T18:04:06.244Z,85.47
2022-09-20T18:06:44.231Z,85.77
2022-09-20T18:09:13.842Z,86.74
2022-09-20T18:11:48.678Z,86.55
2022-09-20T18:14:16.948Z,87.48
2022-09-20T18:16:47.100Z,87.34
2022-09-20T18:19:16.055Z,86.99
2022-09-20T18:21:43.067Z,87.32
2022-09-20T18:24:11.633Z,86.87
2022-09-20T18:26:39.002Z,86.57
2022-09-20T18:29:12.102Z,86.49
2022-09-20T18:31:47.030Z,86.27
2022-09-20T18:34:25.414Z,86.82
2022-09-20T18:36:54.455Z,86.69
2022-09-20T18:39:28.828Z,86.48
2022-09-20T18:41:55.999Z,86.81
2022-09-20T18:44:23.055Z,87.22
2022-09-20T18:46:52.346Z,87.02
2022-09-20T18:49:21.183Z,87.33
2022-09-20T18:51:48.939Z,87.84
2022-09-20T18:54:15.587Z,88.62
2022-09-20T18:56:43.854Z,88.00
2022-09-20T18:59:21.797Z,88.04
2022-09-20T19:01:58.742Z,88.40
2022-09-20T19:04:54.137Z,88.81
2022-09-20T19:07:27.711Z,88.94
2022-09-20T19:10:03.345Z,89.17
2022-09-20T19:12:53.075Z,88.71
2022-09-20T19:15:36.478Z,89.24
2022-09-20T19:18:35.690Z,89.83
2022-09-20T19:21:33.186Z,89.76
2022-09-20T19:24:24.715Z,90.43
2022-09-20T19:26:51.511Z,90.69
2022-09-20T19:29:21.120Z,90.58
2022-09-20T19:31:49.786Z,90.36
2022-09-20T19:34:25.454Z,90.54
2022-09-20T19:37:24.567Z,91.18
2022-09-20T19:39:54.279Z,91.14
2022-09-20T19:42:43.468Z,91.50
2022-09-20T19:45:31.679Z,91.74
2022-09-20T19:48:13.360Z,92.15
2022-09-20T19:50:48.002Z,91.69
2022-09-20T19:53:16.950Z,91.52
2022-09-20T19:55:53.699Z,91.56
2022-09-20T19:58:20.347Z,91.62
2022-09-20T22:43:39.855Z,93.73
2022-09-20T22:46:09.108Z,94.44
2022-09-20T22:48:36.232Z,94.36
2022-09-20T22:51:08.407Z,94.63
2022-09-20T22:53:36.516Z,94.54
2022-09-20T22:56:14.918Z,95.06
2022-09-20T22:58:43.723Z,94.99
2022-09-20T23:01:22.682Z,95.04
2022-09-20T23:03:56.954Z,94.96
2022-09-20T23:06:26.734Z,94.80
2022-09-20T23:08:55.958Z,95.58
2022-09-20T23:11:22.686Z,95.07
2022-09-20T23:13:53.864Z,95.02
2022-09-20T23:16:22.271Z,94.82
2022-09-20T23:18:50.568Z,95.28
2022-09-20T23:21:18.159Z,95.28
2022-09-20T23:23:45.739Z,95.25
2022-09-20T23:26:14.814Z,95.29
2022-09-20T23:28:43.829Z,95.18
2022-09-20T23:31:13.468Z,95.55
2022-09-20T23:33:44.749Z,95.52
2022-09-20T23:36:13.168Z,95.59
2022-09-20T23:38:41.127Z,95.61
2022-09-20T23:41:10.531Z,95.57
2022-09-20T23:43:37.394Z,95.29
2022-09-20T23:46:05.843Z,95.29
2022-09-20T23:48:36.215Z,95.14
2022-09-20T23:51:04.319Z,95.05
2022-09-20T23:53:31.300Z,95.18
2022-09-20T23:55:58.165Z,95.00
2022-09-20T23:58:24.756Z,95.19
